Time;durP1;ratioP1;P1;durP2;ratioP2;P2;SDS_P1;SDS_P2;PMS_P1;PMS_P2;Temp;Humidity;BMP_temperature;BMP_pressure;BME280_temperature;BME280_humidity;BME280_pressure;Samples;Min_cycle;Max_cycle;Signal;HPM_P1;HPM_P2
2022/07/04 00:00:18;;;;;;;;;;;12.80;99.90;;;;;;5166738;27;20302;-68
2022/07/04 00:02:44;;;;;;;;;;;12.70;99.90;;;;;;5167249;27;19929;-69
2022/07/04 00:05:10;;;;;;;;;;;13.10;99.90;;;;;;5165117;27;19980;-69
2022/07/04 00:07:36;;;;;;;;;;;13.20;99.90;;;;;;5165529;27;19937;-68
2022/07/04 00:10:02;;;;;;;;;;;12.60;99.90;;;;;;5149836;27;20436;-69
2022/07/04 00:12:27;;;;;;;;;;;12.60;99.90;;;;;;5165647;27;19923;-69
2022/07/04 00:14:53;;;;;;;;;;;12.60;99.90;;;;;;5167615;27;19927;-69
2022/07/04 00:17:18;;;;;;;;;;;12.60;99.90;;;;;;5162463;27;19954;-68
2022/07/04 00:19:44;;;;;;;;;;;12.60;99.90;;;;;;5167651;27;19923;-68
2022/07/04 00:22:09;;;;;;;;;;;13.30;99.90;;;;;;5165826;27;19927;-69
2022/07/04 00:24:35;;;;;;;;;;;12.80;99.90;;;;;;5147948;27;19923;-68
2022/07/04 00:27:03;;;;;;;;;;;12.60;99.90;;;;;;5148890;27;19922;-69
2022/07/04 00:29:29;;;;;;;;;;;12.60;99.90;;;;;;5164300;27;19923;-68
2022/07/04 00:31:55;;;;;;;;;;;12.60;99.90;;;;;;5168652;27;20401;-69
2022/07/04 00:34:20;;;;;;;;;;;12.60;99.90;;;;;;5166060;27;19923;-69
2022/07/04 00:36:46;;;;;;;;;;;12.70;99.90;;;;;;5145963;27;19949;-69
2022/07/04 00:39:11;;;;;;;;;;;12.60;99.90;;;;;;5166990;27;19926;-69
2022/07/04 00:41:37;;;;;;;;;;;12.50;99.90;;;;;;5148097;27;20021;-68
2022/07/04 00:44:04;;;;;;;;;;;12.50;99.90;;;;;;5146281;27;19927;-69
2022/07/04 00:46:30;;;;;;;;;;;12.50;99.90;;;;;;5167164;27;19927;-68
2022/07/04 00:48:55;;;;;;;;;;;12.50;99.90;;;;;;5144888;27;19930;-69
2022/07/04 00:51:21;;;;;;;;;;;12.50;99.90;;;;;;5145933;27;19926;-68
2022/07/04 00:53:47;;;;;;;;;;;13.10;99.90;;;;;;5149524;27;19966;-69
2022/07/04 00:56:12;;;;;;;;;;;12.40;99.90;;;;;;5163682;27;19967;-69
2022/07/04 00:58:38;;;;;;;;;;;12.50;99.90;;;;;;5166647;27;19923;-69
2022/07/04 01:01:03;;;;;;;;;;;12.40;99.90;;;;;;5147334;27;19975;-70
2022/07/04 01:03:29;;;;;;;;;;;12.50;99.90;;;;;;5164643;27;20308;-69
2022/07/04 01:05:55;;;;;;;;;;;12.40;99.90;;;;;;5144116;27;19923;-69
2022/07/04 01:08:21;;;;;;;;;;;12.50;99.90;;;;;;5167908;27;20005;-69
2022/07/04 01:10:46;;;;;;;;;;;12.40;99.90;;;;;;5145267;27;20018;-69
2022/07/04 01:13:23;;;;;;;;;;;13.10;99.90;;;;;;5166980;27;19923;-69
2022/07/04 01:15:50;;;;;;;;;;;12.40;99.90;;;;;;5160523;27;19923;-70
2022/07/04 01:18:16;;;;;;;;;;;12.40;99.90;;;;;;5159583;27;19923;-69
2022/07/04 01:20:42;;;;;;;;;;;12.40;99.90;;;;;;5149004;27;19975;-69
2022/07/04 01:23:07;;;;;;;;;;;12.40;99.90;;;;;;5145782;27;19937;-69
2022/07/04 01:25:33;;;;;;;;;;;12.40;99.90;;;;;;5147269;27;19923;-69
2022/07/04 01:28:00;;;;;;;;;;;12.40;99.90;;;;;;5146695;27;20014;-69
2022/07/04 01:30:26;;;;;;;;;;;12.40;99.90;;;;;;5146976;27;19923;-69
2022/07/04 01:32:52;;;;;;;;;;;12.90;99.90;;;;;;5165186;27;19975;-69
2022/07/04 01:35:17;;;;;;;;;;;12.40;99.90;;;;;;5164381;27;20017;-69
2022/07/04 01:37:43;;;;;;;;;;;12.30;99.90;;;;;;5148797;27;19923;-70
2022/07/04 01:40:08;;;;;;;;;;;12.40;99.90;;;;;;5162633;27;20404;-70
2022/07/04 01:42:34;;;;;;;;;;;12.20;99.90;;;;;;5147836;27;20407;-70
2022/07/04 01:45:00;;;;;;;;;;;12.40;99.90;;;;;;5164420;27;20271;-70
2022/07/04 01:47:26;;;;;;;;;;;12.40;99.90;;;;;;5161768;27;19938;-70
2022/07/04 01:49:54;;;;;;;;;;;12.30;99.90;;;;;;5164595;27;19923;-70
2022/07/04 01:52:20;;;;;;;;;;;12.60;99.90;;;;;;5165507;27;19918;-69
2022/07/04 01:54:45;;;;;;;;;;;12.30;99.90;;;;;;5145227;27;19969;-68
2022/07/04 01:57:12;;;;;;;;;;;12.40;99.90;;;;;;5148244;27;19923;-68
2022/07/04 02:02:23;;;;;;;;;;;12.60;99.90;;;;;;5144235;27;19923;-67
2022/07/04 02:04:48;;;;;;;;;;;12.30;99.90;;;;;;5165710;27;19919;-68
2022/07/04 02:07:14;;;;;;;;;;;12.40;99.90;;;;;;5143976;27;19927;-68
2022/07/04 02:09:39;;;;;;;;;;;12.30;99.90;;;;;;5147996;27;19971;-68
2022/07/04 02:14:49;;;;;;;;;;;12.30;99.90;;;;;;5143164;27;19923;-68
2022/07/04 02:17:14;;;;;;;;;;;12.30;99.90;;;;;;5161839;27;20375;-68
2022/07/04 02:19:40;;;;;;;;;;;12.30;99.90;;;;;;5147759;27;19930;-69
2022/07/04 02:22:05;;;;;;;;;;;12.20;99.90;;;;;;5161679;27;19923;-68
2022/07/04 02:24:31;;;;;;;;;;;12.20;99.90;;;;;;5164787;27;20049;-68
2022/07/04 02:26:56;;;;;;;;;;;12.20;99.90;;;;;;5161825;27;19985;-68
2022/07/04 02:29:22;;;;;;;;;;;12.30;99.90;;;;;;5164575;27;19980;-68
2022/07/04 02:31:47;;;;;;;;;;;12.20;99.90;;;;;;5145233;27;19966;-68
2022/07/04 02:34:13;;;;;;;;;;;12.20;99.90;;;;;;5146489;27;19965;-68
2022/07/04 02:36:38;;;;;;;;;;;12.80;99.90;;;;;;5162212;27;20380;-68
2022/07/04 02:39:04;;;;;;;;;;;12.30;99.90;;;;;;5166171;27;20362;-68
2022/07/04 02:41:30;;;;;;;;;;;12.20;99.90;;;;;;5139345;27;19923;-68
2022/07/04 02:43:56;;;;;;;;;;;12.60;99.90;;;;;;5147020;27;19966;-68
2022/07/04 02:46:22;;;;;;;;;;;12.20;99.90;;;;;;5144887;27;19973;-69
2022/07/04 02:48:54;;;;;;;;;;;12.20;99.90;;;;;;5144698;27;19934;-68
2022/07/04 02:51:20;;;;;;;;;;;12.30;99.90;;;;;;5163811;27;19930;-68
2022/07/04 02:53:45;;;;;;;;;;;12.20;99.90;;;;;;5164109;27;19923;-68
2022/07/04 02:56:14;;;;;;;;;;;12.20;99.90;;;;;;5145170;27;19923;-68
2022/07/04 02:58:39;;;;;;;;;;;12.20;99.90;;;;;;5144522;27;19961;-68
2022/07/04 03:01:05;;;;;;;;;;;12.20;99.90;;;;;;5146418;27;19958;-68
2022/07/04 03:03:30;;;;;;;;;;;12.30;99.90;;;;;;5142781;27;19923;-68
2022/07/04 03:05:56;;;;;;;;;;;12.30;99.90;;;;;;5163880;27;19923;-68
2022/07/04 03:08:21;;;;;;;;;;;12.20;99.90;;;;;;5162896;27;20006;-68
2022/07/04 03:10:50;;;;;;;;;;;12.20;99.90;;;;;;5144810;27;20021;-68
2022/07/04 03:13:15;;;;;;;;;;;12.30;99.90;;;;;;5145264;27;20395;-68
2022/07/04 03:15:40;;;;;;;;;;;12.30;99.90;;;;;;5145394;27;19930;-68
2022/07/04 03:18:06;;;;;;;;;;;12.30;99.90;;;;;;5145102;27;20029;-68
2022/07/04 03:20:32;;;;;;;;;;;12.40;99.90;;;;;;5159090;27;20057;-68
2022/07/04 03:22:58;;;;;;;;;;;12.30;99.90;;;;;;5143451;27;19923;-68
2022/07/04 03:25:23;;;;;;;;;;;12.30;99.90;;;;;;5165224;27;19926;-68
2022/07/04 03:27:49;;;;;;;;;;;12.20;99.90;;;;;;5162519;27;19923;-68
2022/07/04 03:30:14;;;;;;;;;;;12.20;99.90;;;;;;5146272;27;19924;-68
2022/07/04 03:32:40;;;;;;;;;;;12.20;99.90;;;;;;5163143;27;20394;-68
2022/07/04 03:35:05;;;;;;;;;;;12.20;99.90;;;;;;5163053;27;19930;-68
2022/07/04 03:37:31;;;;;;;;;;;12.20;99.90;;;;;;5145900;27;20093;-68
2022/07/04 03:39:56;;;;;;;;;;;12.20;99.90;;;;;;5142573;27;20361;-68
2022/07/04 03:42:22;;;;;;;;;;;12.20;99.90;;;;;;5147450;27;20017;-68
2022/07/04 03:44:47;;;;;;;;;;;12.30;99.90;;;;;;5161391;27;19923;-69
2022/07/04 03:47:13;;;;;;;;;;;12.20;99.90;;;;;;5163886;27;19931;-68
2022/07/04 03:49:39;;;;;;;;;;;12.20;99.90;;;;;;5164261;27;19930;-68
2022/07/04 03:52:04;;;;;;;;;;;12.40;99.90;;;;;;5162756;27;19986;-68
2022/07/04 03:54:30;;;;;;;;;;;12.40;99.90;;;;;;5162837;27;19923;-68
2022/07/04 03:56:55;;;;;;;;;;;12.40;99.90;;;;;;5164351;27;20442;-68
2022/07/04 03:59:21;;;;;;;;;;;12.40;99.90;;;;;;5142680;27;19923;-68
2022/07/04 04:01:46;;;;;;;;;;;12.50;99.90;;;;;;5157579;27;20306;-68
2022/07/04 04:06:56;;;;;;;;;;;12.60;99.90;;;;;;5139506;27;20007;-68
2022/07/04 04:09:24;;;;;;;;;;;12.60;99.90;;;;;;5165464;27;20334;-68
2022/07/04 04:11:50;;;;;;;;;;;12.70;99.90;;;;;;5146449;27;19919;-68
2022/07/04 04:14:16;;;;;;;;;;;13.20;99.90;;;;;;5145828;27;19923;-69
2022/07/04 04:16:42;;;;;;;;;;;13.00;99.90;;;;;;5149873;27;19923;-68
2022/07/04 04:19:08;;;;;;;;;;;12.90;99.90;;;;;;5147057;27;20006;-68
2022/07/04 04:21:34;;;;;;;;;;;13.20;99.90;;;;;;5147760;27;20007;-68
2022/07/04 04:24:02;;;;;;;;;;;13.10;99.90;;;;;;5148248;27;19919;-68
2022/07/04 04:26:28;;;;;;;;;;;13.00;99.90;;;;;;5164500;27;20398;-68
2022/07/04 04:28:54;;;;;;;;;;;13.00;99.90;;;;;;5164270;27;19923;-68
2022/07/04 04:31:19;;;;;;;;;;;13.00;99.90;;;;;;5165384;27;19923;-68
2022/07/04 04:33:45;;;;;;;;;;;13.30;99.90;;;;;;5168952;27;19929;-68
2022/07/04 04:36:10;;;;;;;;;;;13.20;99.90;;;;;;5162644;27;19983;-68
2022/07/04 04:38:36;;;;;;;;;;;13.20;99.90;;;;;;5146647;27;19923;-68
2022/07/04 04:41:02;;;;;;;;;;;13.20;99.90;;;;;;5166463;27;20013;-69
2022/07/04 04:43:27;;;;;;;;;;;13.20;99.90;;;;;;5166187;27;20005;-69
2022/07/04 04:45:53;;;;;;;;;;;13.20;99.90;;;;;;5146820;27;20416;-68
2022/07/04 04:48:18;;;;;;;;;;;13.30;99.90;;;;;;5166926;27;19975;-69
2022/07/04 04:50:45;;;;;;;;;;;13.40;99.90;;;;;;5160009;27;19927;-69
2022/07/04 04:53:11;;;;;;;;;;;13.40;99.90;;;;;;5168159;27;19929;-68
2022/07/04 04:55:37;;;;;;;;;;;13.60;99.90;;;;;;5145187;27;20400;-68
2022/07/04 04:58:02;;;;;;;;;;;13.80;99.90;;;;;;5167178;27;19923;-69
2022/07/04 05:00:28;;;;;;;;;;;13.70;99.90;;;;;;5146727;27;20009;-69
2022/07/04 05:02:53;;;;;;;;;;;14.00;99.90;;;;;;5142218;27;20011;-69
2022/07/04 05:05:19;;;;;;;;;;;13.90;99.90;;;;;;5166689;27;19922;-69
2022/07/04 05:07:44;;;;;;;;;;;14.00;99.90;;;;;;5166721;27;19922;-69
2022/07/04 05:10:10;;;;;;;;;;;14.00;99.90;;;;;;5164961;27;19974;-68
2022/07/04 05:12:36;;;;;;;;;;;14.10;99.90;;;;;;5164419;27;20316;-68
2022/07/04 05:15:01;;;;;;;;;;;14.20;99.90;;;;;;5167121;27;19926;-69
2022/07/04 05:17:27;;;;;;;;;;;14.30;99.90;;;;;;5164068;27;19931;-69
2022/07/04 05:19:53;;;;;;;;;;;14.40;99.90;;;;;;5147150;27;19930;-71
2022/07/04 05:22:18;;;;;;;;;;;14.50;99.90;;;;;;5161540;27;19975;-72
2022/07/04 05:24:44;;;;;;;;;;;14.60;99.90;;;;;;5142337;27;19923;-69
2022/07/04 05:27:09;;;;;;;;;;;14.80;99.90;;;;;;5166457;27;20026;-68
2022/07/04 05:29:35;;;;;;;;;;;14.80;99.90;;;;;;5163971;27;19923;-69
2022/07/04 05:32:00;;;;;;;;;;;14.90;99.90;;;;;;5147960;27;19958;-68
2022/07/04 05:34:26;;;;;;;;;;;15.00;99.90;;;;;;5145957;27;19974;-69
2022/07/04 05:36:52;;;;;;;;;;;15.20;99.90;;;;;;5165745;27;19934;-69
2022/07/04 05:39:17;;;;;;;;;;;15.30;99.90;;;;;;5164050;27;19923;-72
2022/07/04 05:41:43;;;;;;;;;;;15.40;99.90;;;;;;5164641;27;20437;-72
2022/07/04 05:44:08;;;;;;;;;;;15.60;99.90;;;;;;5166133;27;19922;-72
2022/07/04 05:46:34;;;;;;;;;;;15.70;99.90;;;;;;5162569;27;19923;-73
2022/07/04 05:48:59;;;;;;;;;;;15.90;99.90;;;;;;5148525;27;19923;-78
2022/07/04 05:51:25;;;;;;;;;;;16.00;99.90;;;;;;5144362;27;19966;-72
2022/07/04 05:53:50;;;;;;;;;;;16.20;99.90;;;;;;5165420;27;19922;-75
2022/07/04 05:56:16;;;;;;;;;;;16.30;99.90;;;;;;5146350;27;20391;-72
2022/07/04 05:58:41;;;;;;;;;;;16.40;99.90;;;;;;5145497;27;19934;-72
2022/07/04 06:01:08;;;;;;;;;;;16.50;99.90;;;;;;5147040;27;19927;-71
2022/07/04 06:03:36;;;;;;;;;;;16.60;99.90;;;;;;5145241;27;20363;-69
2022/07/04 06:06:02;;;;;;;;;;;16.70;99.90;;;;;;5145145;27;19933;-69
2022/07/04 06:08:28;;;;;;;;;;;16.90;99.90;;;;;;5142153;27;19979;-70
2022/07/04 06:10:53;;;;;;;;;;;17.00;99.90;;;;;;5162436;27;19923;-73
2022/07/04 06:13:19;;;;;;;;;;;17.20;99.90;;;;;;5162460;27;19931;-73
2022/07/04 06:15:45;;;;;;;;;;;17.30;99.90;;;;;;5165492;27;19930;-70
2022/07/04 06:18:11;;;;;;;;;;;17.40;99.90;;;;;;5145370;27;19927;-72
2022/07/04 06:20:39;;;;;;;;;;;17.50;99.90;;;;;;5144896;27;19927;-70
2022/07/04 06:23:05;;;;;;;;;;;17.50;99.90;;;;;;5164824;27;19929;-74
2022/07/04 06:25:31;;;;;;;;;;;17.50;99.90;;;;;;5162531;27;19931;-71
2022/07/04 06:27:56;;;;;;;;;;;17.50;99.90;;;;;;5161378;27;19968;-74
2022/07/04 06:30:22;;;;;;;;;;;17.50;99.90;;;;;;5140326;27;19991;-73
2022/07/04 06:32:49;;;;;;;;;;;17.50;99.90;;;;;;5146332;27;20362;-72
2022/07/04 06:38:10;;;;;;;;;;;17.50;99.90;;;;;;5114126;27;19923;-73
2022/07/04 06:40:36;;;;;;;;;;;17.50;99.90;;;;;;5145763;27;20389;-72
2022/07/04 06:43:01;;;;;;;;;;;17.50;99.90;;;;;;5144757;27;20006;-72
2022/07/04 06:45:27;;;;;;;;;;;17.60;99.90;;;;;;5147488;27;20462;-80
2022/07/04 06:47:53;;;;;;;;;;;17.70;99.90;;;;;;5142705;27;20394;-74
2022/07/04 06:50:18;;;;;;;;;;;17.80;99.90;;;;;;5147738;27;19967;-77
2022/07/04 06:52:44;;;;;;;;;;;17.80;99.90;;;;;;5163478;27;19977;-74
2022/07/04 06:55:10;;;;;;;;;;;18.00;99.90;;;;;;5163930;27;19933;-74
2022/07/04 06:57:35;;;;;;;;;;;18.10;99.90;;;;;;5164082;27;19922;-74
2022/07/04 07:00:02;;;;;;;;;;;18.10;99.90;;;;;;5144908;27;20422;-74
2022/07/04 07:02:28;;;;;;;;;;;18.40;99.90;;;;;;5145952;27;19923;-75
2022/07/04 07:04:54;;;;;;;;;;;18.60;99.90;;;;;;5162659;27;20382;-75
2022/07/04 07:07:20;;;;;;;;;;;18.60;99.90;;;;;;5165834;27;19930;-75
2022/07/04 07:09:45;;;;;;;;;;;18.70;99.90;;;;;;5138974;27;19923;-74
2022/07/04 07:12:11;;;;;;;;;;;18.80;99.90;;;;;;5161250;27;19945;-75
2022/07/04 07:14:36;;;;;;;;;;;18.90;99.90;;;;;;5144985;27;20362;-75
2022/07/04 07:17:02;;;;;;;;;;;18.90;99.90;;;;;;5144445;27;20362;-74
2022/07/04 07:19:28;;;;;;;;;;;19.10;99.90;;;;;;5145805;27;19967;-70
2022/07/04 07:21:53;;;;;;;;;;;19.10;99.90;;;;;;5161972;27;19969;-70
2022/07/04 07:24:19;;;;;;;;;;;19.40;99.90;;;;;;5143416;27;20278;-72
2022/07/04 07:26:44;;;;;;;;;;;19.60;99.90;;;;;;5162243;27;19923;-75
2022/07/04 07:29:10;;;;;;;;;;;20.10;99.90;;;;;;5164830;27;20386;-73
2022/07/04 07:31:36;;;;;;;;;;;20.80;99.90;;;;;;5143846;27;20599;-75
2022/07/04 07:34:01;;;;;;;;;;;21.30;99.90;;;;;;5145350;27;20430;-75
2022/07/04 07:36:27;;;;;;;;;;;21.70;99.90;;;;;;5139883;27;19922;-74
2022/07/04 07:38:53;;;;;;;;;;;22.10;99.90;;;;;;5141007;27;19939;-75
2022/07/04 07:41:19;;;;;;;;;;;22.30;99.90;;;;;;5144914;27;19954;-75
2022/07/04 07:43:44;;;;;;;;;;;22.90;99.30;;;;;;5160695;27;19969;-75
2022/07/04 07:46:10;;;;;;;;;;;23.50;99.00;;;;;;5143686;27;20402;-75
2022/07/04 07:48:35;;;;;;;;;;;23.70;97.80;;;;;;5149524;27;19922;-75
2022/07/04 07:51:01;;;;;;;;;;;23.30;96.80;;;;;;5164842;27;20362;-75
2022/07/04 07:53:26;;;;;;;;;;;23.10;98.50;;;;;;5148418;27;20430;-75
2022/07/04 07:55:52;;;;;;;;;;;22.90;97.80;;;;;;5148441;27;20005;-75
2022/07/04 07:58:19;;;;;;;;;;;23.20;99.10;;;;;;5146546;27;20333;-75
2022/07/04 08:00:45;;;;;;;;;;;23.30;98.40;;;;;;5150336;27;19923;-75
2022/07/04 08:06:00;;;;;;;;;;;22.70;98.40;;;;;;5163086;27;19958;-74
2022/07/04 08:08:26;;;;;;;;;;;22.10;99.50;;;;;;5166669;27;20373;-75
2022/07/04 08:10:51;;;;;;;;;;;21.60;99.90;;;;;;5166951;27;19930;-74
2022/07/04 08:13:17;;;;;;;;;;;21.30;99.90;;;;;;5147148;27;20374;-75
2022/07/04 08:15:42;;;;;;;;;;;20.90;99.90;;;;;;5150115;27;19934;-75
2022/07/04 08:18:08;;;;;;;;;;;20.60;99.90;;;;;;5146790;27;19923;-75
2022/07/04 08:20:33;;;;;;;;;;;20.40;99.90;;;;;;5156714;27;19923;-75
2022/07/04 08:22:59;;;;;;;;;;;20.40;99.90;;;;;;5149594;27;20301;-74
2022/07/04 08:25:24;;;;;;;;;;;20.10;99.90;;;;;;5147949;27;19968;-73
2022/07/04 08:27:50;;;;;;;;;;;20.00;99.90;;;;;;5164946;27;19927;-72
2022/07/04 08:30:15;;;;;;;;;;;19.80;99.90;;;;;;5149117;27;19927;-73
2022/07/04 08:32:41;;;;;;;;;;;19.80;99.90;;;;;;5147160;27;20377;-74
2022/07/04 08:35:12;;;;;;;;;;;20.50;99.90;;;;;;5149109;27;19923;-73
2022/07/04 08:37:40;;;;;;;;;;;21.10;99.90;;;;;;5165411;27;19966;-72
2022/07/04 08:40:07;;;;;;;;;;;21.10;99.90;;;;;;5168157;27;19961;-72
2022/07/04 08:42:37;;;;;;;;;;;20.70;99.90;;;;;;5163717;27;19976;-74
2022/07/04 08:45:03;;;;;;;;;;;20.30;99.90;;;;;;5131558;27;19923;-71
2022/07/04 08:47:31;;;;;;;;;;;20.20;99.90;;;;;;5138643;27;20302;-71
2022/07/04 08:49:57;;;;;;;;;;;20.00;99.90;;;;;;5140686;27;19927;-73
2022/07/04 08:52:30;;;;;;;;;;;20.00;99.90;;;;;;5135527;27;19947;-73
2022/07/04 09:00:38;;;;;;;;;;;22.30;99.90;;;;;;5101396;27;19985;-71
2022/07/04 09:03:04;;;;;;;;;;;22.60;98.60;;;;;;5156494;27;20366;-71
2022/07/04 09:05:32;;;;;;;;;;;22.40;98.10;;;;;;5143046;27;20278;-69
2022/07/04 09:07:58;;;;;;;;;;;21.80;98.80;;;;;;5141406;27;19923;-72
2022/07/04 09:10:24;;;;;;;;;;;21.40;99.50;;;;;;5148086;27;19930;-72
2022/07/04 09:12:49;;;;;;;;;;;21.20;99.70;;;;;;5164331;27;19933;-70
2022/07/04 09:15:15;;;;;;;;;;;21.40;99.90;;;;;;5166768;27;20010;-71
2022/07/04 09:17:41;;;;;;;;;;;21.80;99.90;;;;;;5156776;27;20430;-71
2022/07/04 09:20:17;;;;;;;;;;;22.10;99.60;;;;;;5154723;27;19923;-72
2022/07/04 09:22:43;;;;;;;;;;;21.90;98.70;;;;;;5146312;27;19974;-70
2022/07/04 09:25:12;;;;;;;;;;;21.30;99.50;;;;;;5146198;27;19926;-71
2022/07/04 09:27:44;;;;;;;;;;;21.30;99.70;;;;;;5146633;27;19978;-71
2022/07/04 09:30:10;;;;;;;;;;;21.80;99.90;;;;;;5163609;27;19927;-71
2022/07/04 09:32:39;;;;;;;;;;;22.70;99.30;;;;;;5147189;27;19922;-71
2022/07/04 09:35:05;;;;;;;;;;;23.30;98.10;;;;;;5145158;27;20293;-71
2022/07/04 09:37:35;;;;;;;;;;;24.00;96.60;;;;;;5164151;27;19930;-73
2022/07/04 09:40:01;;;;;;;;;;;24.20;95.90;;;;;;5138631;27;19930;-73
2022/07/04 09:42:33;;;;;;;;;;;23.90;95.00;;;;;;5163453;27;19922;-72
2022/07/04 09:45:03;;;;;;;;;;;23.80;95.80;;;;;;5136910;27;20334;-74
2022/07/04 09:47:29;;;;;;;;;;;24.00;95.20;;;;;;5141970;27;19923;-72
2022/07/04 09:50:09;;;;;;;;;;;23.70;95.30;;;;;;5140752;27;19945;-71
2022/07/04 09:52:43;;;;;;;;;;;24.00;94.80;;;;;;5155430;27;19927;-77
2022/07/04 09:55:09;;;;;;;;;;;23.80;94.80;;;;;;5154726;27;20208;-73
2022/07/04 09:57:34;;;;;;;;;;;23.50;94.70;;;;;;5135810;27;19923;-72
2022/07/04 10:00:15;;;;;;;;;;;23.30;94.80;;;;;;5165706;27;19953;-74
2022/07/04 10:02:41;;;;;;;;;;;22.90;94.40;;;;;;5165976;27;20029;-72
2022/07/04 10:05:07;;;;;;;;;;;22.40;95.50;;;;;;5153994;27;20412;-72
2022/07/04 10:07:33;;;;;;;;;;;22.30;96.40;;;;;;5156643;27;19927;-72
2022/07/04 10:09:58;;;;;;;;;;;22.00;96.40;;;;;;5136493;27;19923;-74
2022/07/04 10:12:24;;;;;;;;;;;21.90;96.00;;;;;;5137342;27;19954;-75
2022/07/04 10:14:50;;;;;;;;;;;21.90;96.40;;;;;;5155531;27;20417;-74
2022/07/04 10:17:16;;;;;;;;;;;21.90;95.70;;;;;;5137924;27;19923;-71
2022/07/04 10:19:44;;;;;;;;;;;22.10;95.60;;;;;;5139754;27;19926;-73
2022/07/04 10:22:10;;;;;;;;;;;22.70;95.60;;;;;;5157783;27;19926;-71
2022/07/04 10:24:36;;;;;;;;;;;23.10;96.00;;;;;;5157141;27;19983;-71
2022/07/04 10:27:01;;;;;;;;;;;23.40;94.70;;;;;;5156494;27;19978;-73
2022/07/04 10:29:27;;;;;;;;;;;23.70;95.00;;;;;;5164937;27;19955;-71
2022/07/04 10:31:53;;;;;;;;;;;23.70;94.60;;;;;;5141798;27;19931;-74
2022/07/04 10:34:19;;;;;;;;;;;24.00;94.10;;;;;;5141018;27;19919;-74
2022/07/04 10:36:50;;;;;;;;;;;23.90;94.80;;;;;;5147793;27;19923;-74
2022/07/04 10:39:21;;;;;;;;;;;24.50;95.90;;;;;;5159029;27;20335;-74
2022/07/04 10:41:58;;;;;;;;;;;24.70;94.40;;;;;;5140421;27;19961;-74
2022/07/04 10:44:25;;;;;;;;;;;24.20;94.00;;;;;;5147735;27;20370;-73
2022/07/04 10:46:52;;;;;;;;;;;23.70;93.90;;;;;;5161034;27;19930;-74
2022/07/04 10:49:19;;;;;;;;;;;23.90;95.00;;;;;;5162960;27;20271;-74
2022/07/04 10:51:45;;;;;;;;;;;23.90;94.20;;;;;;5165807;27;19973;-72
2022/07/04 10:54:13;;;;;;;;;;;23.60;93.90;;;;;;5142900;27;19951;-76
2022/07/04 10:56:40;;;;;;;;;;;23.40;94.80;;;;;;5139660;27;19923;-74
2022/07/04 10:59:10;;;;;;;;;;;23.30;94.60;;;;;;5146540;27;19927;-72
2022/07/04 11:01:36;;;;;;;;;;;22.80;94.20;;;;;;5143295;27;19923;-71
2022/07/04 11:04:02;;;;;;;;;;;23.10;94.10;;;;;;5143592;27;20599;-75
2022/07/04 11:06:33;;;;;;;;;;;23.40;93.70;;;;;;5164470;27;19923;-73
2022/07/04 11:09:17;;;;;;;;;;;23.80;94.50;;;;;;5161821;27;19930;-75
2022/07/04 11:11:56;;;;;;;;;;;23.50;94.00;;;;;;5140776;27;19938;-73
2022/07/04 11:14:37;;;;;;;;;;;24.70;94.40;;;;;;5146306;27;19923;-75
2022/07/04 11:17:26;;;;;;;;;;;23.50;93.60;;;;;;5140362;27;19927;-74
2022/07/04 11:19:58;;;;;;;;;;;23.50;93.80;;;;;;5146580;27;19968;-76
2022/07/04 11:22:24;;;;;;;;;;;23.20;94.50;;;;;;5147944;27;19930;-75
2022/07/04 11:24:49;;;;;;;;;;;22.90;95.00;;;;;;5165974;27;19918;-74
2022/07/04 11:27:15;;;;;;;;;;;22.60;95.10;;;;;;5167197;27;19931;-72
2022/07/04 11:29:51;;;;;;;;;;;22.30;94.60;;;;;;5168323;27;20388;-73
2022/07/04 11:32:16;;;;;;;;;;;22.40;94.80;;;;;;5146763;27;19923;-78
2022/07/04 11:34:42;;;;;;;;;;;22.30;95.80;;;;;;5145569;27;19927;-76
2022/07/04 11:37:07;;;;;;;;;;;22.30;95.90;;;;;;5146366;27;19931;-73
2022/07/04 11:39:33;;;;;;;;;;;22.80;96.20;;;;;;5167079;27;19930;-71
2022/07/04 11:45:02;;;;;;;;;;;23.00;95.20;;;;;;5160906;27;20001;-74
2022/07/04 11:47:30;;;;;;;;;;;23.00;94.80;;;;;;5141714;27;19923;-74
2022/07/04 11:49:57;;;;;;;;;;;23.00;95.10;;;;;;5144809;27;20002;-74
2022/07/04 11:52:24;;;;;;;;;;;23.00;95.30;;;;;;5143160;27;19931;-73
2022/07/04 11:54:50;;;;;;;;;;;23.30;94.70;;;;;;5156949;27;19927;-76
2022/07/04 11:57:21;;;;;;;;;;;23.40;94.50;;;;;;5155815;27;19923;-73
2022/07/04 11:59:53;;;;;;;;;;;23.10;93.80;;;;;;5141559;27;19926;-73
2022/07/04 12:02:19;;;;;;;;;;;23.10;94.40;;;;;;5137752;27;19923;-74
2022/07/04 12:04:45;;;;;;;;;;;22.90;94.00;;;;;;5162422;27;19967;-74
2022/07/04 12:07:14;;;;;;;;;;;23.10;93.60;;;;;;5133394;27;19927;-74
2022/07/04 12:09:40;;;;;;;;;;;23.10;93.10;;;;;;5140103;27;20419;-73
2022/07/04 12:12:06;;;;;;;;;;;22.90;93.90;;;;;;5154670;27;19987;-73
2022/07/04 12:14:32;;;;;;;;;;;22.80;94.00;;;;;;5166992;27;20362;-73
2022/07/04 12:17:13;;;;;;;;;;;22.80;94.20;;;;;;5160739;27;20026;-75
2022/07/04 12:19:48;;;;;;;;;;;23.20;94.60;;;;;;5143134;27;19962;-75
2022/07/04 12:22:23;;;;;;;;;;;23.00;94.20;;;;;;5149513;27;19922;-72
2022/07/04 12:24:49;;;;;;;;;;;23.10;94.70;;;;;;5140904;27;19923;-72
2022/07/04 12:27:18;;;;;;;;;;;23.30;94.00;;;;;;5140148;27;19930;-71
2022/07/04 12:29:50;;;;;;;;;;;22.90;94.20;;;;;;5162355;27;19934;-71
2022/07/04 12:32:16;;;;;;;;;;;22.80;93.60;;;;;;5141928;27;19931;-73
2022/07/04 12:34:41;;;;;;;;;;;22.90;93.80;;;;;;5139499;27;20382;-72
2022/07/04 12:37:11;;;;;;;;;;;22.60;94.00;;;;;;5139719;27;19971;-74
2022/07/04 12:39:37;;;;;;;;;;;22.60;94.30;;;;;;5158284;27;19970;-73
2022/07/04 12:42:04;;;;;;;;;;;22.60;93.90;;;;;;5138345;27;19934;-72
2022/07/04 12:44:32;;;;;;;;;;;22.50;93.80;;;;;;5137786;27;19923;-72
2022/07/04 12:46:58;;;;;;;;;;;22.70;94.00;;;;;;5131960;27;19923;-71
2022/07/04 12:49:24;;;;;;;;;;;22.80;94.20;;;;;;5141632;27;19930;-73
2022/07/04 12:51:49;;;;;;;;;;;22.90;93.90;;;;;;5136867;27;19930;-72
2022/07/04 12:54:15;;;;;;;;;;;22.90;93.70;;;;;;5131448;27;19924;-74
2022/07/04 12:56:41;;;;;;;;;;;22.80;93.40;;;;;;5138933;27;20010;-74
2022/07/04 12:59:11;;;;;;;;;;;22.90;93.90;;;;;;5135921;27;19949;-74
2022/07/04 13:01:36;;;;;;;;;;;23.00;94.40;;;;;;5136015;27;20331;-74
2022/07/04 13:04:02;;;;;;;;;;;23.00;93.90;;;;;;5134908;27;20438;-74
2022/07/04 13:06:28;;;;;;;;;;;22.90;93.90;;;;;;5137067;27;19930;-75
2022/07/04 13:08:54;;;;;;;;;;;23.00;93.70;;;;;;5137634;27;19975;-74
2022/07/04 13:14:05;;;;;;;;;;;23.10;94.60;;;;;;5134988;27;19923;-72
2022/07/04 13:16:30;;;;;;;;;;;22.90;94.10;;;;;;5135578;27;19923;-74
2022/07/04 13:18:57;;;;;;;;;;;22.90;94.00;;;;;;5136502;27;19959;-72
2022/07/04 13:21:23;;;;;;;;;;;23.00;93.80;;;;;;5136841;27;19931;-70
2022/07/04 13:23:48;;;;;;;;;;;22.80;93.50;;;;;;5134872;27;19972;-74
2022/07/04 13:26:14;;;;;;;;;;;23.00;93.90;;;;;;5140912;27;19930;-74
2022/07/04 13:28:40;;;;;;;;;;;23.10;94.00;;;;;;5140696;27;19968;-72
2022/07/04 13:31:06;;;;;;;;;;;23.30;92.90;;;;;;5139721;27;19928;-72
2022/07/04 13:33:31;;;;;;;;;;;23.10;92.10;;;;;;5141048;27;20401;-70
2022/07/04 13:35:57;;;;;;;;;;;22.80;92.40;;;;;;5135796;27;20010;-72
2022/07/04 13:38:23;;;;;;;;;;;22.90;93.30;;;;;;5143111;27;19974;-72
2022/07/04 13:40:48;;;;;;;;;;;23.00;93.40;;;;;;5141087;27;19931;-71
2022/07/04 13:43:14;;;;;;;;;;;22.90;92.20;;;;;;5135640;27;19924;-70
2022/07/04 13:45:40;;;;;;;;;;;23.00;92.50;;;;;;5133322;27;19923;-70
2022/07/04 13:48:06;;;;;;;;;;;22.80;92.90;;;;;;5143366;27;19923;-71
2022/07/04 13:50:32;;;;;;;;;;;22.60;92.70;;;;;;5137059;27;19930;-73
2022/07/04 13:52:58;;;;;;;;;;;22.80;92.90;;;;;;5141989;27;20021;-70
2022/07/04 13:55:23;;;;;;;;;;;22.90;92.90;;;;;;5137917;27;20007;-72
2022/07/04 13:57:49;;;;;;;;;;;22.60;93.80;;;;;;5141495;27;19930;-73
2022/07/04 14:00:15;;;;;;;;;;;22.40;93.60;;;;;;5142508;27;19923;-72
2022/07/04 14:02:41;;;;;;;;;;;22.70;93.40;;;;;;5142518;27;19930;-71
2022/07/04 14:05:06;;;;;;;;;;;22.80;92.90;;;;;;5136067;27;19919;-71
2022/07/04 14:07:33;;;;;;;;;;;23.00;92.70;;;;;;5136073;27;20428;-71
2022/07/04 14:09:59;;;;;;;;;;;22.70;93.30;;;;;;5139863;27;19923;-71
2022/07/04 14:12:25;;;;;;;;;;;22.60;93.60;;;;;;5141419;27;20061;-71
2022/07/04 14:14:50;;;;;;;;;;;22.70;94.10;;;;;;5139928;27;20396;-70
2022/07/04 14:17:16;;;;;;;;;;;22.60;94.00;;;;;;5139162;27;19947;-70
2022/07/04 14:19:41;;;;;;;;;;;22.30;92.20;;;;;;5144271;27;19923;-70
2022/07/04 14:22:07;;;;;;;;;;;22.10;92.60;;;;;;5140738;27;19972;-75
2022/07/04 14:24:32;;;;;;;;;;;22.40;93.10;;;;;;5141280;27;19953;-71
2022/07/04 14:26:58;;;;;;;;;;;22.40;93.70;;;;;;5141448;27;19930;-71
2022/07/04 14:29:23;;;;;;;;;;;22.70;93.60;;;;;;5142968;27;19930;-71
2022/07/04 14:31:51;;;;;;;;;;;22.80;93.20;;;;;;5143559;27;19930;-71
2022/07/04 14:34:17;;;;;;;;;;;22.70;92.80;;;;;;5140511;27;19923;-71
2022/07/04 14:36:42;;;;;;;;;;;22.80;93.40;;;;;;5143172;27;19929;-70